sensor_id;sensor_type;location;lat;lon;timestamp;pressure;altitude;pressure_sealevel;temperature;humidity
70952;BME280;67274;55.810;37.376;2023-01-28T00:00:33;100716.63;;;-0.48;80.07
70952;BME280;67274;55.810;37.376;2023-01-28T00:02:59;100651.94;;;-0.96;80.66
70952;BME280;67274;55.810;37.376;2023-01-28T00:05:25;100659.78;;;-0.83;80.20
70952;BME280;67274;55.810;37.376;2023-01-28T00:07:51;100695.88;;;-0.67;80.25
70952;BME280;67274;55.810;37.376;2023-01-28T00:10:18;100724.47;;;-0.56;80.73
70952;BME280;67274;55.810;37.376;2023-01-28T00:12:44;100715.25;;;-0.63;80.81
70952;BME280;67274;55.810;37.376;2023-01-28T00:15:10;100725.56;;;-0.58;80.64
70952;BME280;67274;55.810;37.376;2023-01-28T00:17:36;100634.94;;;-1.06;80.11
70952;BME280;67274;55.810;37.376;2023-01-28T00:20:03;100668.47;;;-0.91;80.84
70952;BME280;67274;55.810;37.376;2023-01-28T00:22:30;100681.50;;;-0.86;80.56
70952;BME280;67274;55.810;37.376;2023-01-28T00:24:57;100722.09;;;-0.70;80.77
70952;BME280;67274;55.810;37.376;2023-01-28T00:27:24;100692.47;;;-0.89;80.21
70952;BME280;67274;55.810;37.376;2023-01-28T00:29:50;100635.13;;;-1.19;80.25
70952;BME280;67274;55.810;37.376;2023-01-28T00:32:16;100725.88;;;-0.73;80.40
70952;BME280;67274;55.810;37.376;2023-01-28T00:34:42;100691.16;;;-0.95;80.92
70952;BME280;67274;55.810;37.376;2023-01-28T00:37:08;100685.06;;;-0.97;80.51
70952;BME280;67274;55.810;37.376;2023-01-28T00:39:34;100691.75;;;-0.91;80.92
70952;BME280;67274;55.810;37.376;2023-01-28T00:42:00;100722.34;;;-0.73;80.95
70952;BME280;67274;55.810;37.376;2023-01-28T00:44:26;100729.53;;;-0.74;80.51
70952;BME280;67274;55.810;37.376;2023-01-28T00:46:53;100730.38;;;-0.73;80.84
70952;BME280;67274;55.810;37.376;2023-01-28T00:49:21;100717.13;;;-0.75;80.29
70952;BME280;67274;55.810;37.376;2023-01-28T00:51:47;100726.13;;;-0.76;80.84
70952;BME280;67274;55.810;37.376;2023-01-28T00:54:15;100637.56;;;-1.27;80.42
70952;BME280;67274;55.810;37.376;2023-01-28T00:56:41;100632.00;;;-1.35;80.16
70952;BME280;67274;55.810;37.376;2023-01-28T00:59:07;100696.50;;;-0.95;80.92
70952;BME280;67274;55.810;37.376;2023-01-28T01:01:33;100649.59;;;-1.21;80.67
70952;BME280;67274;55.810;37.376;2023-01-28T01:03:59;100654.84;;;-1.20;80.83
70952;BME280;67274;55.810;37.376;2023-01-28T01:06:32;100726.25;;;-0.77;80.05
70952;BME280;67274;55.810;37.376;2023-01-28T01:09:00;100730.66;;;-0.76;80.75
70952;BME280;67274;55.810;37.376;2023-01-28T01:11:27;100734.44;;;-0.79;79.76
70952;BME280;67274;55.810;37.376;2023-01-28T01:13:54;100676.34;;;-1.10;80.03
70952;BME280;67274;55.810;37.376;2023-01-28T01:16:28;100647.69;;;-1.31;79.80
70952;BME280;67274;55.810;37.376;2023-01-28T01:18:57;100698.38;;;-1.07;80.20
70952;BME280;67274;55.810;37.376;2023-01-28T01:21:26;100693.38;;;-1.11;79.87
70952;BME280;67274;55.810;37.376;2023-01-28T01:23:53;100745.91;;;-0.88;80.38
70952;BME280;67274;55.810;37.376;2023-01-28T01:26:21;100704.81;;;-1.09;79.93
70952;BME280;67274;55.810;37.376;2023-01-28T01:28:47;100702.28;;;-1.11;79.76
70952;BME280;67274;55.810;37.376;2023-01-28T01:31:17;100718.19;;;-0.98;80.04
70952;BME280;67274;55.810;37.376;2023-01-28T01:33:45;100665.44;;;-1.29;80.08
70952;BME280;67274;55.810;37.376;2023-01-28T01:36:13;100700.78;;;-1.04;80.50
70952;BME280;67274;55.810;37.376;2023-01-28T01:38:39;100689.34;;;-1.06;79.98
70952;BME280;67274;55.810;37.376;2023-01-28T01:41:08;100693.59;;;-1.03;79.80
70952;BME280;67274;55.810;37.376;2023-01-28T01:43:50;100705.91;;;-1.01;79.82
70952;BME280;67274;55.810;37.376;2023-01-28T01:46:25;100733.97;;;-0.84;79.89
70952;BME280;67274;55.810;37.376;2023-01-28T01:48:55;100688.03;;;-1.11;79.90
70952;BME280;67274;55.810;37.376;2023-01-28T01:51:28;100680.38;;;-1.16;79.99
70952;BME280;67274;55.810;37.376;2023-01-28T01:53:58;100721.22;;;-0.91;80.45
70952;BME280;67274;55.810;37.376;2023-01-28T01:56:31;100727.28;;;-0.89;79.56
70952;BME280;67274;55.810;37.376;2023-01-28T01:58:59;100696.06;;;-1.11;79.80
70952;BME280;67274;55.810;37.376;2023-01-28T02:01:28;100735.72;;;-0.94;80.53
70952;BME280;67274;55.810;37.376;2023-01-28T02:04:08;100703.63;;;-1.16;79.56
70952;BME280;67274;55.810;37.376;2023-01-28T02:06:37;100723.91;;;-1.03;80.36
70952;BME280;67274;55.810;37.376;2023-01-28T02:09:25;100645.81;;;-1.51;79.92
70952;BME280;67274;55.810;37.376;2023-01-28T02:12:05;100737.66;;;-0.96;79.71
70952;BME280;67274;55.810;37.376;2023-01-28T02:14:36;100729.75;;;-0.98;79.77
70952;BME280;67274;55.810;37.376;2023-01-28T02:17:23;100690.63;;;-1.21;80.08
70952;BME280;67274;55.810;37.376;2023-01-28T02:20:06;100660.25;;;-1.42;80.15
70952;BME280;67274;55.810;37.376;2023-01-28T02:22:58;100736.09;;;-0.99;80.04
70952;BME280;67274;55.810;37.376;2023-01-28T02:28:30;100741.69;;;-1.02;80.23
70952;BME280;67274;55.810;37.376;2023-01-28T02:31:16;100704.63;;;-1.28;80.15
70952;BME280;67274;55.810;37.376;2023-01-28T02:33:57;100715.94;;;-1.25;79.51
70952;BME280;67274;55.810;37.376;2023-01-28T02:37:00;100733.31;;;-1.08;79.98
70952;BME280;67274;55.810;37.376;2023-01-28T02:39:39;100709.03;;;-1.27;79.81
70952;BME280;67274;55.810;37.376;2023-01-28T02:42:14;100756.56;;;-1.09;79.87
70952;BME280;67274;55.810;37.376;2023-01-28T02:44:42;100755.97;;;-1.12;79.37
70952;BME280;67274;55.810;37.376;2023-01-28T02:47:10;100684.63;;;-1.56;79.81
70952;BME280;67274;55.810;37.376;2023-01-28T02:49:58;100723.53;;;-1.41;79.69
70952;BME280;67274;55.810;37.376;2023-01-28T02:58:30;100768.88;;;-1.17;80.39
70952;BME280;67274;55.810;37.376;2023-01-28T03:01:27;100737.63;;;-1.39;80.42
70952;BME280;67274;55.810;37.376;2023-01-28T03:03:58;100769.84;;;-1.18;80.28
70952;BME280;67274;55.810;37.376;2023-01-28T03:06:31;100690.59;;;-1.64;80.21
70952;BME280;67274;55.810;37.376;2023-01-28T03:09:04;100743.00;;;-1.39;80.40
70952;BME280;67274;55.810;37.376;2023-01-28T03:11:56;100771.81;;;-1.20;79.62
70952;BME280;67274;55.810;37.376;2023-01-28T03:14:45;100745.19;;;-1.44;79.40
70952;BME280;67274;55.810;37.376;2023-01-28T03:17:43;100779.22;;;-1.24;79.75
70952;BME280;67274;55.810;37.376;2023-01-28T03:20:36;100780.47;;;-1.28;80.25
70952;BME280;67274;55.810;37.376;2023-01-28T03:23:29;100771.09;;;-1.34;80.09
70952;BME280;67274;55.810;37.376;2023-01-28T03:26:20;100769.88;;;-1.41;79.66
70952;BME280;67274;55.810;37.376;2023-01-28T03:29:11;100750.53;;;-1.55;79.49
70952;BME280;67274;55.810;37.376;2023-01-28T03:31:58;100715.03;;;-1.69;79.72
70952;BME280;67274;55.810;37.376;2023-01-28T03:34:44;100721.59;;;-1.61;79.59
70952;BME280;67274;55.810;37.376;2023-01-28T03:37:30;100770.13;;;-1.33;79.65
70952;BME280;67274;55.810;37.376;2023-01-28T03:40:16;100771.94;;;-1.33;80.12
70952;BME280;67274;55.810;37.376;2023-01-28T03:42:43;100759.91;;;-1.50;80.03
70952;BME280;67274;55.810;37.376;2023-01-28T03:45:25;100692.06;;;-1.82;79.98
70952;BME280;67274;55.810;37.376;2023-01-28T03:47:51;100702.53;;;-1.79;79.70
70952;BME280;67274;55.810;37.376;2023-01-28T03:50:17;100781.19;;;-1.37;79.65
70952;BME280;67274;55.810;37.376;2023-01-28T03:52:53;100763.06;;;-1.45;80.10
70952;BME280;67274;55.810;37.376;2023-01-28T03:55:27;100740.22;;;-1.60;80.10
70952;BME280;67274;55.810;37.376;2023-01-28T03:57:53;100779.63;;;-1.40;80.09
70952;BME280;67274;55.810;37.376;2023-01-28T04:00:20;100777.91;;;-1.41;80.03
70952;BME280;67274;55.810;37.376;2023-01-28T04:02:48;100760.03;;;-1.51;79.39
70952;BME280;67274;55.810;37.376;2023-01-28T04:05:17;100770.13;;;-1.44;79.83
70952;BME280;67274;55.810;37.376;2023-01-28T04:07:47;100760.66;;;-1.59;79.20
70952;BME280;67274;55.810;37.376;2023-01-28T04:10:39;100771.34;;;-1.48;79.87
70952;BME280;67274;55.810;37.376;2023-01-28T04:13:27;100741.91;;;-1.70;79.17
70952;BME280;67274;55.810;37.376;2023-01-28T04:15:54;100770.50;;;-1.48;79.16
70952;BME280;67274;55.810;37.376;2023-01-28T04:18:20;100752.97;;;-1.64;79.81
70952;BME280;67274;55.810;37.376;2023-01-28T04:20:54;100781.19;;;-1.48;79.91
70952;BME280;67274;55.810;37.376;2023-01-28T04:23:20;100778.66;;;-1.50;79.11
70952;BME280;67274;55.810;37.376;2023-01-28T04:25:49;100744.84;;;-1.73;79.16
70952;BME280;67274;55.810;37.376;2023-01-28T04:28:16;100746.78;;;-1.75;79.67
70952;BME280;67274;55.810;37.376;2023-01-28T04:30:43;100782.78;;;-1.57;79.22
70952;BME280;67274;55.810;37.376;2023-01-28T04:33:31;100781.19;;;-1.59;78.87
70952;BME280;67274;55.810;37.376;2023-01-28T04:36:02;100787.41;;;-1.59;79.33
70952;BME280;67274;55.810;37.376;2023-01-28T04:38:37;100732.78;;;-1.90;79.43
70952;BME280;67274;55.810;37.376;2023-01-28T04:41:07;100778.91;;;-1.64;78.91
70952;BME280;67274;55.810;37.376;2023-01-28T04:43:34;100684.88;;;-2.26;78.83
70952;BME280;67274;55.810;37.376;2023-01-28T04:46:18;100792.50;;;-1.67;79.20
70952;BME280;67274;55.810;37.376;2023-01-28T04:49:11;100780.47;;;-1.73;79.39
70952;BME280;67274;55.810;37.376;2023-01-28T04:51:50;100746.41;;;-1.93;79.57
70952;BME280;67274;55.810;37.376;2023-01-28T04:54:31;100793.00;;;-1.73;79.16
70952;BME280;67274;55.810;37.376;2023-01-28T04:57:00;100783.38;;;-1.76;79.04
70952;BME280;67274;55.810;37.376;2023-01-28T04:59:26;100693.59;;;-2.36;78.91
70952;BME280;67274;55.810;37.376;2023-01-28T05:01:52;100745.78;;;-2.08;79.50
70952;BME280;67274;55.810;37.376;2023-01-28T05:04:20;100722.41;;;-2.28;79.37
70952;BME280;67274;55.810;37.376;2023-01-28T05:06:46;100800.88;;;-1.83;79.26
70952;BME280;67274;55.810;37.376;2023-01-28T05:09:18;100804.53;;;-1.84;79.24
70952;BME280;67274;55.810;37.376;2023-01-28T05:11:44;100805.75;;;-1.88;79.54
70952;BME280;67274;55.810;37.376;2023-01-28T05:14:10;100733.59;;;-2.34;79.39
70952;BME280;67274;55.810;37.376;2023-01-28T05:16:41;100764.84;;;-2.12;79.09
70952;BME280;67274;55.810;37.376;2023-01-28T05:19:07;100735.16;;;-2.32;79.56
70952;BME280;67274;55.810;37.376;2023-01-28T05:21:40;100808.78;;;-1.92;78.90
70952;BME280;67274;55.810;37.376;2023-01-28T05:24:14;100760.94;;;-2.19;79.55
70952;BME280;67274;55.810;37.376;2023-01-28T05:26:42;100701.34;;;-2.55;79.04
70952;BME280;67274;55.810;37.376;2023-01-28T05:29:09;100805.47;;;-1.96;79.42
70952;BME280;67274;55.810;37.376;2023-01-28T05:31:35;100774.94;;;-2.16;79.03
70952;BME280;67274;55.810;37.376;2023-01-28T05:34:01;100799.53;;;-2.00;79.44
70952;BME280;67274;55.810;37.376;2023-01-28T05:36:27;100809.38;;;-2.00;79.82
70952;BME280;67274;55.810;37.376;2023-01-28T05:38:54;100800.38;;;-1.99;79.04
70952;BME280;67274;55.810;37.376;2023-01-28T05:41:20;100808.28;;;-1.98;78.82
70952;BME280;67274;55.810;37.376;2023-01-28T05:43:53;100707.41;;;-2.53;79.01
70952;BME280;67274;55.810;37.376;2023-01-28T05:46:32;100784.44;;;-2.12;78.92
70952;BME280;67274;55.810;37.376;2023-01-28T05:49:16;100749.50;;;-2.33;79.02
70952;BME280;67274;55.810;37.376;2023-01-28T05:52:17;100733.56;;;-2.45;79.49
70952;BME280;67274;55.810;37.376;2023-01-28T05:54:44;100812.91;;;-2.00;79.63
70952;BME280;67274;55.810;37.376;2023-01-28T05:57:10;100770.41;;;-2.26;78.93
70952;BME280;67274;55.810;37.376;2023-01-28T05:59:36;100784.78;;;-2.16;78.94
70952;BME280;67274;55.810;37.376;2023-01-28T06:02:03;100821.53;;;-1.96;79.39
70952;BME280;67274;55.810;37.376;2023-01-28T06:04:29;100800.13;;;-2.07;78.86
70952;BME280;67274;55.810;37.376;2023-01-28T06:06:55;100829.44;;;-1.94;79.23
70952;BME280;67274;55.810;37.376;2023-01-28T06:09:21;100835.75;;;-1.96;79.23
70952;BME280;67274;55.810;37.376;2023-01-28T06:11:49;100789.75;;;-2.23;79.44
70952;BME280;67274;55.810;37.376;2023-01-28T06:14:15;100793.03;;;-2.19;78.88
70952;BME280;67274;55.810;37.376;2023-01-28T06:17:14;100818.72;;;-2.06;79.07
70952;BME280;67274;55.810;37.376;2023-01-28T06:19:50;100786.72;;;-2.18;78.61
70952;BME280;67274;55.810;37.376;2023-01-28T06:22:17;100772.13;;;-2.25;78.81
70952;BME280;67274;55.810;37.376;2023-01-28T06:24:43;100744.13;;;-2.44;79.20
70952;BME280;67274;55.810;37.376;2023-01-28T06:27:09;100759.31;;;-2.44;78.66
70952;BME280;67274;55.810;37.376;2023-01-28T06:29:35;100816.03;;;-2.06;79.37
70952;BME280;67274;55.810;37.376;2023-01-28T06:32:01;100783.91;;;-2.28;78.60
70952;BME280;67274;55.810;37.376;2023-01-28T06:34:27;100791.09;;;-2.17;78.73
70952;BME280;67274;55.810;37.376;2023-01-28T06:36:53;100830.53;;;-1.97;79.31
70952;BME280;67274;55.810;37.376;2023-01-28T06:39:20;100824.31;;;-1.98;78.66
70952;BME280;67274;55.810;37.376;2023-01-28T06:41:47;100789.38;;;-2.18;79.10
70952;BME280;67274;55.810;37.376;2023-01-28T06:44:13;100764.19;;;-2.38;78.61
70952;BME280;67274;55.810;37.376;2023-01-28T06:46:40;100846.22;;;-1.92;79.31
70952;BME280;67274;55.810;37.376;2023-01-28T06:49:06;100797.19;;;-2.15;78.42
70952;BME280;67274;55.810;37.376;2023-01-28T06:51:32;100796.78;;;-2.22;78.82
70952;BME280;67274;55.810;37.376;2023-01-28T06:53:58;100851.91;;;-1.97;78.67
70952;BME280;67274;55.810;37.376;2023-01-28T06:56:24;100767.22;;;-2.43;78.76
70952;BME280;67274;55.810;37.376;2023-01-28T06:58:50;100824.19;;;-2.07;78.89
70952;BME280;67274;55.810;37.376;2023-01-28T07:01:16;100840.50;;;-1.99;79.00
70952;BME280;67274;55.810;37.376;2023-01-28T07:03:42;100800.59;;;-2.13;79.24
70952;BME280;67274;55.810;37.376;2023-01-28T07:06:08;100845.25;;;-1.91;79.11
70952;BME280;67274;55.810;37.376;2023-01-28T07:08:35;100847.69;;;-1.88;78.97
70952;BME280;67274;55.810;37.376;2023-01-28T07:11:02;100797.91;;;-2.13;78.86
70952;BME280;67274;55.810;37.376;2023-01-28T07:13:29;100758.50;;;-2.34;78.72
70952;BME280;67274;55.810;37.376;2023-01-28T07:15:55;100824.94;;;-1.94;78.67
70952;BME280;67274;55.810;37.376;2023-01-28T07:18:21;100764.44;;;-2.30;78.63
70952;BME280;67274;55.810;37.376;2023-01-28T07:20:47;100845.50;;;-1.83;78.52
70952;BME280;67274;55.810;37.376;2023-01-28T07:23:13;100798.06;;;-2.04;78.98
70952;BME280;67274;55.810;37.376;2023-01-28T07:25:39;100814.84;;;-2.02;78.74
70952;BME280;67274;55.810;37.376;2023-01-28T07:28:06;100785.16;;;-2.10;78.95
70952;BME280;67274;55.810;37.376;2023-01-28T07:30:32;100836.03;;;-1.76;78.69
70952;BME280;67274;55.810;37.376;2023-01-28T07:32:58;100841.03;;;-1.72;78.42
70952;BME280;67274;55.810;37.376;2023-01-28T07:35:44;100839.09;;;-1.70;78.94
70952;BME280;67274;55.810;37.376;2023-01-28T07:38:16;100838.72;;;-1.65;78.78
70952;BME280;67274;55.810;37.376;2023-01-28T07:40:42;100803.69;;;-1.84;78.84
70952;BME280;67274;55.810;37.376;2023-01-28T07:43:14;100799.41;;;-1.87;78.73
70952;BME280;67274;55.810;37.376;2023-01-28T07:45:47;100784.94;;;-1.96;77.97
70952;BME280;67274;55.810;37.376;2023-01-28T07:48:13;100832.16;;;-1.72;78.33
70952;BME280;67274;55.810;37.376;2023-01-28T07:50:39;100856.00;;;-1.58;78.75
70952;BME280;67274;55.810;37.376;2023-01-28T07:53:09;100847.00;;;-1.57;78.99
70952;BME280;67274;55.810;37.376;2023-01-28T07:55:36;100812.56;;;-1.73;78.78
70952;BME280;67274;55.810;37.376;2023-01-28T07:58:04;100849.22;;;-1.51;78.74
70952;BME280;67274;55.810;37.376;2023-01-28T08:00:33;100767.81;;;-1.93;78.66
70952;BME280;67274;55.810;37.376;2023-01-28T08:03:03;100806.97;;;-1.70;78.21
70952;BME280;67274;55.810;37.376;2023-01-28T08:05:40;100834.72;;;-1.48;78.35
70952;BME280;67274;55.810;37.376;2023-01-28T08:08:09;100831.94;;;-1.47;78.10
70952;BME280;67274;55.810;37.376;2023-01-28T08:10:36;100840.56;;;-1.43;78.52
70952;BME280;67274;55.810;37.376;2023-01-28T08:13:03;100839.38;;;-1.39;78.12
70952;BME280;67274;55.810;37.376;2023-01-28T08:15:29;100832.06;;;-1.37;78.79
70952;BME280;67274;55.810;37.376;2023-01-28T08:17:57;100837.91;;;-1.32;78.88
70952;BME280;67274;55.810;37.376;2023-01-28T08:20:25;100797.75;;;-1.54;77.87
70952;BME280;67274;55.810;37.376;2023-01-28T08:22:51;100849.34;;;-1.30;78.11
70952;BME280;67274;55.810;37.376;2023-01-28T08:25:18;100790.56;;;-1.54;77.85
70952;BME280;67274;55.810;37.376;2023-01-28T08:27:44;100797.13;;;-1.47;78.13
70952;BME280;67274;55.810;37.376;2023-01-28T08:30:11;100848.47;;;-1.19;78.34
70952;BME280;67274;55.810;37.376;2023-01-28T08:32:37;100800.06;;;-1.39;77.57
70952;BME280;67274;55.810;37.376;2023-01-28T08:35:04;100784.47;;;-1.45;77.52
70952;BME280;67274;55.810;37.376;2023-01-28T08:37:30;100798.84;;;-1.35;78.26
70952;BME280;67274;55.810;37.376;2023-01-28T08:39:56;100786.31;;;-1.34;77.49
70952;BME280;67274;55.810;37.376;2023-01-28T08:42:23;100834.25;;;-1.09;77.71
70952;BME280;67274;55.810;37.376;2023-01-28T08:44:49;100741.56;;;-1.66;77.37
70952;BME280;67274;55.810;37.376;2023-01-28T08:47:15;100747.25;;;-1.48;78.21
70952;BME280;67274;55.810;37.376;2023-01-28T08:49:41;100785.31;;;-1.22;77.83
70952;BME280;67274;55.810;37.376;2023-01-28T08:52:07;100777.28;;;-1.22;77.35
70952;BME280;67274;55.810;37.376;2023-01-28T08:54:34;100814.50;;;-0.96;77.48
70952;BME280;67274;55.810;37.376;2023-01-28T09:01:03;100783.59;;;-1.12;77.10
70952;BME280;67274;55.810;37.376;2023-01-28T09:04:14;100816.56;;;-0.89;77.32
70952;BME280;67274;55.810;37.376;2023-01-28T09:06:40;100714.28;;;-1.48;77.68
70952;BME280;67274;55.810;37.376;2023-01-28T09:09:06;100773.25;;;-1.16;77.64
70952;BME280;67274;55.810;37.376;2023-01-28T09:11:33;100783.34;;;-1.09;77.52
70952;BME280;67274;55.810;37.376;2023-01-28T09:13:59;100815.31;;;-0.85;77.15
70952;BME280;67274;55.810;37.376;2023-01-28T09:16:25;100781.28;;;-1.05;77.62
70952;BME280;67274;55.810;37.376;2023-01-28T09:18:52;100818.72;;;-0.83;77.54
70952;BME280;67274;55.810;37.376;2023-01-28T09:21:19;100750.88;;;-1.26;76.82
70952;BME280;67274;55.810;37.376;2023-01-28T09:23:45;100795.13;;;-1.00;77.63
70952;BME280;67274;55.810;37.376;2023-01-28T09:26:12;100715.38;;;-1.40;76.83
70952;BME280;67274;55.810;37.376;2023-01-28T09:28:38;100811.03;;;-0.76;77.25
70952;BME280;67274;55.810;37.376;2023-01-28T09:31:10;100779.66;;;-0.96;76.84
70952;BME280;67274;55.810;37.376;2023-01-28T09:33:38;100775.75;;;-0.92;77.13
70952;BME280;67274;55.810;37.376;2023-01-28T09:36:06;100800.53;;;-0.68;76.77
70952;BME280;67274;55.810;37.376;2023-01-28T09:38:33;100792.16;;;-0.75;76.53
70952;BME280;67274;55.810;37.376;2023-01-28T09:41:24;100792.84;;;-0.61;77.27
70952;BME280;67274;55.810;37.376;2023-01-28T09:46:42;100731.31;;;-0.95;77.00
70952;BME280;67274;55.810;37.376;2023-01-28T09:49:18;100754.16;;;-0.80;76.35
70952;BME280;67274;55.810;37.376;2023-01-28T09:51:52;100784.28;;;-0.55;77.10
70952;BME280;67274;55.810;37.376;2023-01-28T09:54:45;100786.84;;;-0.54;76.87
70952;BME280;67274;55.810;37.376;2023-01-28T09:57:49;100792.06;;;-0.52;76.36
70952;BME280;67274;55.810;37.376;2023-01-28T10:00:22;100784.03;;;-0.52;76.10
70952;BME280;67274;55.810;37.376;2023-01-28T10:07:02;100788.66;;;-0.54;77.18
70952;BME280;67274;55.810;37.376;2023-01-28T10:09:48;100784.41;;;-0.57;77.00
70952;BME280;67274;55.810;37.376;2023-01-28T10:17:47;100789.53;;;-0.54;76.97
70952;BME280;67274;55.810;37.376;2023-01-28T10:20:20;100757.78;;;-0.70;76.48
70952;BME280;67274;55.810;37.376;2023-01-28T10:22:55;100776.97;;;-0.53;76.25
70952;BME280;67274;55.810;37.376;2023-01-28T10:25:26;100776.38;;;-0.57;76.83
70952;BME280;67274;55.810;37.376;2023-01-28T10:27:54;100769.97;;;-0.45;75.95
70952;BME280;67274;55.810;37.376;2023-01-28T10:30:21;100775.09;;;-0.42;76.91
70952;BME280;67274;55.810;37.376;2023-01-28T10:35:34;100768.34;;;-0.36;76.31
70952;BME280;67274;55.810;37.376;2023-01-28T10:38:06;100758.09;;;-0.31;76.80
70952;BME280;67274;55.810;37.376;2023-01-28T10:40:34;100726.38;;;-0.47;75.99
70952;BME280;67274;55.810;37.376;2023-01-28T10:43:00;100756.84;;;-0.27;76.04
70952;BME280;67274;55.810;37.376;2023-01-28T10:45:31;100734.22;;;-0.34;76.38
70952;BME280;67274;55.810;37.376;2023-01-28T10:48:44;100717.41;;;-0.36;76.32
70952;BME280;67274;55.810;37.376;2023-01-28T10:51:08;100746.06;;;-0.16;75.24
70952;BME280;67274;55.810;37.376;2023-01-28T10:53:37;100742.13;;;-0.32;74.72
70952;BME280;67274;55.810;37.376;2023-01-28T10:56:10;100708.56;;;-0.69;74.73
70952;BME280;67274;55.810;37.376;2023-01-28T10:58:49;100653.59;;;-1.16;75.20
70952;BME280;67274;55.810;37.376;2023-01-28T11:01:19;100727.63;;;-0.83;76.32
70952;BME280;67274;55.810;37.376;2023-01-28T11:03:57;100695.22;;;-1.12;76.98
70952;BME280;67274;55.810;37.376;2023-01-28T11:06:29;100702.41;;;-1.12;76.10
70952;BME280;67274;55.810;37.376;2023-01-28T11:08:55;100727.31;;;-1.01;76.41
70952;BME280;67274;55.810;37.376;2023-01-28T11:11:26;100649.06;;;-1.47;77.26
70952;BME280;67274;55.810;37.376;2023-01-28T11:13:53;100697.56;;;-1.18;77.56
70952;BME280;67274;55.810;37.376;2023-01-28T11:16:23;100726.47;;;-1.01;76.82
70952;BME280;67274;55.810;37.376;2023-01-28T11:19:03;100676.28;;;-1.31;76.97
70952;BME280;67274;55.810;37.376;2023-01-28T11:21:31;100715.28;;;-1.06;77.69
70952;BME280;67274;55.810;37.376;2023-01-28T11:24:03;100677.63;;;-1.25;76.99
70952;BME280;67274;55.810;37.376;2023-01-28T11:26:32;100647.00;;;-1.44;77.46
70952;BME280;67274;55.810;37.376;2023-01-28T11:29:00;100647.84;;;-1.43;77.24
70952;BME280;67274;55.810;37.376;2023-01-28T11:31:27;100706.53;;;-1.08;78.09
70952;BME280;67274;55.810;37.376;2023-01-28T11:33:57;100710.06;;;-1.08;77.41
70952;BME280;67274;55.810;37.376;2023-01-28T11:36:29;100711.63;;;-1.05;77.58
70952;BME280;67274;55.810;37.376;2023-01-28T11:38:59;100711.50;;;-1.04;77.24
70952;BME280;67274;55.810;37.376;2023-01-28T11:41:31;100697.25;;;-1.04;77.79
70952;BME280;67274;55.810;37.376;2023-01-28T11:44:15;100635.78;;;-1.38;77.15
70952;BME280;67274;55.810;37.376;2023-01-28T11:52:54;100686.56;;;-1.04;77.94
70952;BME280;67274;55.810;37.376;2023-01-28T12:01:03;100651.81;;;-1.26;77.59
70952;BME280;67274;55.810;37.376;2023-01-28T12:07:02;100687.06;;;-1.10;77.33
70952;BME280;67274;55.810;37.376;2023-01-28T12:09:06;100683.53;;;-1.11;77.94
70952;BME280;67274;55.810;37.376;2023-01-28T12:28:58;100618.88;;;-1.38;77.76
70952;BME280;67274;55.810;37.376;2023-01-28T12:42:29;100630.91;;;-1.33;78.40
70952;BME280;67274;55.810;37.376;2023-01-28T12:47:42;100642.94;;;-1.27;77.79
70952;BME280;67274;55.810;37.376;2023-01-28T12:50:27;100637.56;;;-1.27;78.47
70952;BME280;67274;55.810;37.376;2023-01-28T12:53:13;100636.13;;;-1.31;78.20
70952;BME280;67274;55.810;37.376;2023-01-28T12:55:47;100627.16;;;-1.41;78.12
70952;BME280;67274;55.810;37.376;2023-01-28T12:58:20;100633.59;;;-1.33;78.66
70952;BME280;67274;55.810;37.376;2023-01-28T13:00:50;100633.72;;;-1.34;78.73
70952;BME280;67274;55.810;37.376;2023-01-28T13:04:12;100633.84;;;-1.36;78.01
70952;BME280;67274;55.810;37.376;2023-01-28T13:06:43;100594.84;;;-1.60;78.85
70952;BME280;67274;55.810;37.376;2023-01-28T13:09:17;100579.34;;;-1.78;77.98
70952;BME280;67274;55.810;37.376;2023-01-28T13:11:46;100582.13;;;-1.79;77.88
70952;BME280;67274;55.810;37.376;2023-01-28T13:14:13;100648.81;;;-1.44;78.98
70952;BME280;67274;55.810;37.376;2023-01-28T13:16:40;100615.66;;;-1.64;78.45
70952;BME280;67274;55.810;37.376;2023-01-28T13:21:44;100619.78;;;-1.60;78.85
70952;BME280;67274;55.810;37.376;2023-01-28T13:26:56;100578.38;;;-1.88;78.98
70952;BME280;67274;55.810;37.376;2023-01-28T13:31:52;100598.91;;;-1.77;78.89
70952;BME280;67274;55.810;37.376;2023-01-28T13:36:56;100638.28;;;-1.57;78.96
70952;BME280;67274;55.810;37.376;2023-01-28T13:39:25;100638.41;;;-1.58;78.72
70952;BME280;67274;55.810;37.376;2023-01-28T13:42:39;100608.75;;;-1.78;78.85
70952;BME280;67274;55.810;37.376;2023-01-28T13:44:40;100611.19;;;-1.75;78.55
70952;BME280;67274;55.810;37.376;2023-01-28T13:49:37;100632.44;;;-1.62;78.23
70952;BME280;67274;55.810;37.376;2023-01-28T13:54:39;100589.69;;;-1.84;78.68
70952;BME280;67274;55.810;37.376;2023-01-28T14:08:51;100608.88;;;-1.68;79.07
70952;BME280;67274;55.810;37.376;2023-01-28T14:17:19;100598.28;;;-1.70;78.65
70952;BME280;67274;55.810;37.376;2023-01-28T14:19:51;100560.03;;;-1.92;79.02
70952;BME280;67274;55.810;37.376;2023-01-28T14:22:19;100573.88;;;-1.87;78.81
70952;BME280;67274;55.810;37.376;2023-01-28T14:24:46;100594.53;;;-1.78;78.70
70952;BME280;67274;55.810;37.376;2023-01-28T14:27:17;100601.22;;;-1.73;78.67
70952;BME280;67274;55.810;37.376;2023-01-28T14:32:30;100605.84;;;-1.75;78.93
70952;BME280;67274;55.810;37.376;2023-01-28T14:35:00;100512.81;;;-2.25;78.85
70952;BME280;67274;55.810;37.376;2023-01-28T14:37:31;100559.94;;;-2.02;79.24
70952;BME280;67274;55.810;37.376;2023-01-28T14:40:12;100592.84;;;-1.79;78.88
70952;BME280;67274;55.810;37.376;2023-01-28T14:42:43;100591.25;;;-1.82;79.01
70952;BME280;67274;55.810;37.376;2023-01-28T14:48:24;100590.66;;;-1.85;78.48
70952;BME280;67274;55.810;37.376;2023-01-28T14:53:52;100596.13;;;-1.87;79.41
70952;BME280;67274;55.810;37.376;2023-01-28T14:56:41;100596.13;;;-1.87;78.72
70952;BME280;67274;55.810;37.376;2023-01-28T15:01:47;100533.25;;;-2.24;78.87